createdAt,value
2022-10-17T00:01:40.042Z,100947.84
2022-10-17T00:04:10.438Z,100960.31
2022-10-17T00:06:42.135Z,100952.81
2022-10-17T00:09:12.781Z,100956.81
2022-10-17T00:11:43.213Z,100949.34
2022-10-17T00:14:13.957Z,100952.84
2022-10-17T00:16:44.825Z,100970.56
2022-10-17T00:19:15.173Z,100964.53
2022-10-17T00:21:45.591Z,100964.94
2022-10-17T00:24:15.890Z,100961.19
2022-10-17T00:26:46.352Z,100965.34
2022-10-17T00:29:17.145Z,100954.16
2022-10-17T00:31:50.634Z,100957.47
2022-10-17T00:34:21.107Z,100967.22
2022-10-17T00:36:51.527Z,100969.53
2022-10-17T00:39:21.929Z,100967.66
2022-10-17T00:41:52.329Z,100962.03
2022-10-17T00:44:32.461Z,100976.59
2022-10-17T00:47:07.506Z,100975.75
2022-10-17T00:49:40.124Z,100977.44
2022-10-17T00:52:39.392Z,100981.56
2022-10-17T00:55:27.147Z,100972.03
2022-10-17T00:57:59.456Z,100897.19
2022-10-17T01:00:30.412Z,100979.50
2022-10-17T01:03:01.459Z,100977.03
2022-10-17T01:05:32.080Z,100959.97
2022-10-17T01:08:03.566Z,100981.16
2022-10-17T01:10:51.308Z,100834.00
2022-10-17T01:13:29.302Z,100987.22
2022-10-17T01:16:38.169Z,100918.56
2022-10-17T01:19:22.107Z,100990.50
2022-10-17T01:22:03.367Z,100991.13
2022-10-17T01:25:02.048Z,100983.66
2022-10-17T01:27:56.437Z,100905.09
2022-10-17T01:30:48.406Z,100993.03
2022-10-17T01:33:45.052Z,100996.34
2022-10-17T01:36:43.266Z,100995.91
2022-10-17T01:39:23.704Z,100992.63
2022-10-17T01:42:27.265Z,100989.09
2022-10-17T01:45:08.754Z,100996.16
2022-10-17T01:47:41.394Z,100994.09
2022-10-17T01:50:21.166Z,100947.91
2022-10-17T01:52:59.674Z,101013.41
2022-10-17T01:55:43.293Z,100992.81
2022-10-17T01:58:31.060Z,100998.00
2022-10-17T02:01:08.199Z,100999.03
2022-10-17T02:03:42.317Z,101000.31
2022-10-17T02:06:12.984Z,100981.59
2022-10-17T02:08:46.652Z,100998.63
2022-10-17T02:11:27.671Z,100977.44
2022-10-17T02:14:29.798Z,100996.53
2022-10-17T02:17:11.320Z,100910.09
2022-10-17T02:19:50.758Z,100998.19
2022-10-17T02:22:32.888Z,101008.81
2022-10-17T02:25:18.555Z,101005.25
2022-10-17T02:28:24.317Z,101000.06
2022-10-17T02:30:59.507Z,100996.06
2022-10-17T02:33:39.046Z,100916.09
2022-10-17T02:36:20.218Z,100920.66
2022-10-17T02:38:53.177Z,100909.63
2022-10-17T02:41:26.009Z,100828.44
2022-10-17T02:43:58.846Z,100983.16
2022-10-17T02:46:33.258Z,100981.91
2022-10-17T02:49:15.721Z,100981.47
2022-10-17T02:52:10.053Z,100977.31
2022-10-17T02:54:50.327Z,100975.19
2022-10-17T02:57:37.568Z,100902.28
2022-10-17T03:00:11.156Z,100975.16
2022-10-17T03:02:47.641Z,100971.44
2022-10-17T03:05:21.955Z,100963.50
2022-10-17T03:07:53.439Z,100960.56
2022-10-17T03:10:24.275Z,100946.81
2022-10-17T03:12:55.460Z,100943.06
2022-10-17T03:15:26.866Z,100939.91
2022-10-17T03:17:57.528Z,100929.31
2022-10-17T03:20:28.254Z,100921.41
2022-10-17T03:22:58.685Z,100925.09
2022-10-17T03:25:30.686Z,100926.72
2022-10-17T03:28:02.669Z,100917.34
2022-10-17T03:30:33.784Z,100907.97
2022-10-17T03:33:04.252Z,100897.94
2022-10-17T03:35:34.660Z,100905.44
2022-10-17T03:38:05.157Z,100899.59
2022-10-17T03:40:35.744Z,100892.91
2022-10-17T03:43:07.982Z,100875.84
2022-10-17T03:45:38.377Z,100884.56
2022-10-17T03:48:08.864Z,100885.78
2022-10-17T03:50:39.561Z,100883.91
2022-10-17T03:53:11.302Z,100854.59
2022-10-17T03:55:42.302Z,100875.34
2022-10-17T03:58:13.221Z,100873.25
2022-10-17T04:00:43.696Z,100858.25
2022-10-17T04:03:17.163Z,100857.38
2022-10-17T04:05:48.012Z,100853.59
2022-10-17T04:08:18.680Z,100856.91
2022-10-17T04:11:20.734Z,100850.44
2022-10-17T04:13:56.932Z,100832.38
2022-10-17T04:16:29.574Z,100825.69
2022-10-17T04:19:04.127Z,100831.03
2022-10-17T04:21:40.689Z,100827.91
2022-10-17T04:24:13.312Z,100812.38
2022-10-17T04:26:52.249Z,100806.59
2022-10-17T04:29:26.803Z,100810.75
2022-10-17T04:32:05.169Z,100790.72
2022-10-17T04:34:51.239Z,100790.72
2022-10-17T04:37:24.987Z,100789.22
2022-10-17T04:39:57.570Z,100787.56
2022-10-17T04:42:30.282Z,100786.66
2022-10-17T04:45:01.331Z,100771.91
2022-10-17T04:47:31.881Z,100780.81
2022-10-17T04:50:02.829Z,100778.91
2022-10-17T04:52:40.430Z,100776.56
2022-10-17T04:55:12.202Z,100763.22
2022-10-17T04:57:43.921Z,100763.03
2022-10-17T05:00:24.197Z,100758.22
2022-10-17T05:03:17.389Z,100748.84
2022-10-17T05:05:47.928Z,100753.19
2022-10-17T05:08:18.363Z,100742.13
2022-10-17T05:10:49.159Z,100738.97
2022-10-17T05:13:20.147Z,100737.28
2022-10-17T05:15:51.407Z,100718.16
2022-10-17T05:18:21.907Z,100726.84
2022-10-17T05:20:52.374Z,100714.31
2022-10-17T05:23:23.493Z,100704.09
2022-10-17T05:25:57.332Z,100704.25
2022-10-17T05:28:28.614Z,100689.09
2022-10-17T05:31:07.190Z,100551.44
2022-10-17T05:33:38.732Z,100698.72
2022-10-17T05:36:09.619Z,100685.16
2022-10-17T05:38:40.084Z,100687.41
2022-10-17T05:41:12.398Z,100678.81
2022-10-17T05:43:42.894Z,100678.81
2022-10-17T05:46:15.153Z,100678.59
2022-10-17T05:48:45.570Z,100677.31
2022-10-17T05:51:16.950Z,100671.88
2022-10-17T05:53:47.400Z,100666.00
2022-10-17T05:56:24.945Z,100657.38
2022-10-17T05:59:00.691Z,100651.97
2022-10-17T06:01:42.336Z,100650.47
2022-10-17T06:04:13.011Z,100645.59
2022-10-17T06:06:44.002Z,100640.56
2022-10-17T06:09:15.262Z,100638.69
2022-10-17T06:11:49.590Z,100629.00
2022-10-17T06:14:20.412Z,100632.94
2022-10-17T06:16:54.361Z,100611.69
2022-10-17T06:19:25.825Z,100595.38
2022-10-17T06:21:56.291Z,100624.09
2022-10-17T06:24:29.032Z,100606.75
2022-10-17T06:27:00.297Z,100600.03
2022-10-17T06:29:30.858Z,100596.59
2022-10-17T06:32:01.306Z,100573.84
2022-10-17T06:34:38.270Z,100594.28
2022-10-17T06:37:08.663Z,100591.09
2022-10-17T06:39:40.628Z,100583.16
2022-10-17T06:42:21.072Z,100579.75
2022-10-17T06:45:30.200Z,100578.69
2022-10-17T06:48:18.415Z,100574.66
2022-10-17T06:51:13.205Z,100564.75
2022-10-17T06:53:52.053Z,100549.88
2022-10-17T06:56:49.632Z,100535.03
2022-10-17T06:59:40.755Z,100554.34
2022-10-17T07:02:24.708Z,100547.63
2022-10-17T07:04:57.462Z,100544.22
2022-10-17T07:07:28.192Z,100548.34
2022-10-17T07:09:59.005Z,100534.16
2022-10-17T07:12:29.768Z,100544.91
2022-10-17T07:15:00.135Z,100536.06
2022-10-17T07:17:30.784Z,100533.94
2022-10-17T07:20:01.530Z,100537.22
2022-10-17T07:22:35.356Z,100496.53
2022-10-17T07:25:06.490Z,100532.50
2022-10-17T07:27:43.100Z,100524.94
2022-10-17T07:30:14.791Z,100518.19
2022-10-17T07:32:56.721Z,100516.06
2022-10-17T07:35:27.429Z,100513.94
2022-10-17T07:37:58.655Z,100508.81
2022-10-17T07:40:30.210Z,100513.53
2022-10-17T07:43:03.531Z,100512.81
2022-10-17T07:45:35.078Z,100502.50
2022-10-17T07:48:06.836Z,100453.31
2022-10-17T07:50:37.613Z,100499.34
2022-10-17T07:53:08.366Z,100504.34
2022-10-17T07:55:39.867Z,100506.88
2022-10-17T07:58:12.286Z,100492.94
2022-10-17T08:00:43.321Z,100500.13
2022-10-17T08:03:14.627Z,100484.91
2022-10-17T08:05:45.071Z,100494.31
2022-10-17T08:08:15.539Z,100493.56
2022-10-17T08:10:45.971Z,100465.94
2022-10-17T08:13:16.389Z,100480.91
2022-10-17T08:15:48.920Z,100474.28
2022-10-17T08:18:19.788Z,100483.13
2022-10-17T08:20:50.121Z,100470.56
2022-10-17T08:23:20.505Z,100458.56
2022-10-17T08:25:51.000Z,100475.06
2022-10-17T08:28:21.665Z,100476.19
2022-10-17T08:30:52.168Z,100472.41
2022-10-17T08:33:22.753Z,100467.53
2022-10-17T08:35:53.445Z,100477.34
2022-10-17T08:38:27.809Z,100479.81
2022-10-17T08:41:04.820Z,100336.28
2022-10-17T08:44:01.334Z,100458.38
2022-10-17T08:46:39.621Z,100402.69
2022-10-17T08:49:37.054Z,100404.31
2022-10-17T08:52:33.738Z,100390.66
2022-10-17T08:55:04.611Z,100481.88
2022-10-17T08:57:35.004Z,100469.25
2022-10-17T09:00:14.724Z,100493.13
2022-10-17T09:03:10.135Z,100492.69
2022-10-17T09:06:11.225Z,100440.28
2022-10-17T09:08:59.581Z,100478.91
2022-10-17T09:12:00.562Z,100496.81
2022-10-17T09:14:44.042Z,100501.47
2022-10-17T09:17:27.901Z,100514.25
2022-10-17T09:20:07.742Z,100499.97
2022-10-17T09:23:06.557Z,100507.03
2022-10-17T09:25:45.479Z,100428.75
2022-10-17T09:28:36.302Z,100504.91
2022-10-17T09:31:11.939Z,100505.28
2022-10-17T09:34:00.974Z,100426.34
2022-10-17T09:36:32.928Z,100441.19
2022-10-17T09:39:16.186Z,100503.25
2022-10-17T09:41:55.549Z,100516.84
2022-10-17T09:45:06.153Z,100482.13
2022-10-17T09:47:54.376Z,100510.84
2022-10-17T09:50:31.705Z,100506.72
2022-10-17T09:53:35.901Z,100447.19
2022-10-17T09:56:14.363Z,100537.44
2022-10-17T09:58:50.558Z,100549.72
2022-10-17T10:01:24.904Z,100453.72
2022-10-17T10:04:15.030Z,100467.88
2022-10-17T10:07:08.479Z,100472.19
2022-10-17T10:09:40.473Z,100549.84
2022-10-17T10:12:23.037Z,100550.00
2022-10-17T10:14:55.427Z,100554.13
2022-10-17T10:17:36.200Z,100567.50
2022-10-17T10:20:36.691Z,100570.25
2022-10-17T10:23:19.502Z,100570.34
2022-10-17T10:26:00.361Z,100573.69
2022-10-17T10:28:36.768Z,100576.19
2022-10-17T10:31:10.891Z,100483.34
2022-10-17T10:33:48.145Z,100574.47
2022-10-17T10:36:24.171Z,100601.25
2022-10-17T10:39:01.251Z,100584.44
2022-10-17T10:41:48.937Z,100604.19
2022-10-17T10:44:25.633Z,100521.00
2022-10-17T10:47:22.490Z,100608.28
2022-10-17T10:50:07.647Z,100525.00
2022-10-17T10:52:50.364Z,100611.13
2022-10-17T10:55:26.519Z,100621.19
2022-10-17T10:58:01.642Z,100555.44
2022-10-17T11:00:36.459Z,100627.31
2022-10-17T11:03:12.945Z,100626.22
2022-10-17T11:05:52.589Z,100630.25
2022-10-17T11:08:36.817Z,100633.69
2022-10-17T11:11:18.979Z,100642.88
2022-10-17T11:13:54.057Z,100643.94
2022-10-17T11:16:38.829Z,100660.94
2022-10-17T11:19:33.064Z,100651.25
2022-10-17T11:22:18.700Z,100658.81
2022-10-17T11:25:21.154Z,100631.91
2022-10-17T11:27:51.325Z,100664.41
2022-10-17T11:30:24.746Z,100541.53
2022-10-17T11:33:01.591Z,100692.22
2022-10-17T11:35:40.797Z,100669.69
2022-10-17T11:38:17.176Z,100697.91
2022-10-17T11:40:53.466Z,100609.00
2022-10-17T11:43:29.402Z,100683.13
2022-10-17T11:46:14.057Z,100684.22
2022-10-17T11:49:07.841Z,100631.09
2022-10-17T11:52:07.452Z,100633.81
2022-10-17T11:54:47.210Z,100723.53
2022-10-17T11:57:20.162Z,100727.91
2022-10-17T12:00:08.332Z,100733.56
2022-10-17T12:03:02.109Z,100731.06
2022-10-17T12:06:08.081Z,100748.00
2022-10-17T12:09:17.098Z,100675.38
2022-10-17T12:11:54.836Z,100767.53
2022-10-17T12:14:47.679Z,100757.72
2022-10-17T12:17:35.947Z,100766.91
2022-10-17T12:20:27.530Z,100756.34
2022-10-17T12:23:07.531Z,100710.47
2022-10-17T12:25:49.569Z,100702.19
2022-10-17T12:28:52.368Z,100775.28
2022-10-17T12:31:33.634Z,100782.28
2022-10-17T12:34:07.138Z,100786.06
2022-10-17T12:36:38.725Z,100790.44
2022-10-17T12:39:12.768Z,100784.84
2022-10-17T12:41:44.301Z,100793.59
2022-10-17T12:44:22.663Z,100803.63
2022-10-17T12:47:11.622Z,100803.69
2022-10-17T12:49:56.467Z,100746.16
2022-10-17T12:52:37.670Z,100814.94
2022-10-17T12:55:14.383Z,100821.41
2022-10-17T12:58:00.057Z,100788.13
2022-10-17T13:00:59.409Z,100808.22
2022-10-17T13:03:43.811Z,100773.22
2022-10-17T13:06:23.531Z,100763.63
2022-10-17T13:09:05.843Z,100821.34
2022-10-17T13:11:40.065Z,100776.97
2022-10-17T13:14:16.609Z,100827.94
2022-10-17T13:17:26.716Z,100847.16
2022-10-17T13:19:58.376Z,100837.91
2022-10-17T13:22:38.423Z,100777.41
2022-10-17T13:25:15.454Z,100827.13
2022-10-17T13:27:46.482Z,100841.81
2022-10-17T13:30:32.055Z,100839.25
2022-10-17T13:33:03.991Z,100854.75
2022-10-17T13:35:58.879Z,100764.69
2022-10-17T13:38:31.067Z,100863.34
2022-10-17T13:41:30.008Z,100866.66
2022-10-17T13:43:56.052Z,100859.00
2022-10-17T13:46:39.890Z,100848.28
2022-10-17T13:49:38.637Z,100873.31
2022-10-17T13:52:19.491Z,100866.06
2022-10-17T13:54:52.388Z,100799.41
2022-10-17T13:57:27.774Z,100877.06
2022-10-17T14:00:15.008Z,100871.28
2022-10-17T14:02:46.630Z,100883.00
2022-10-17T14:05:21.133Z,100890.53
2022-10-17T14:08:11.479Z,100883.13
2022-10-17T14:10:45.675Z,100823.50
2022-10-17T14:13:31.439Z,100894.94
2022-10-17T14:16:04.312Z,100850.94
2022-10-17T14:18:37.779Z,100799.97
2022-10-17T14:24:22.516Z,100899.03
2022-10-17T14:26:59.054Z,100894.25
2022-10-17T14:29:55.101Z,100895.72
2022-10-17T14:32:30.119Z,100890.56
2022-10-17T14:35:37.029Z,100892.69
2022-10-17T14:38:04.102Z,100897.28
2022-10-17T14:40:36.259Z,100888.97
2022-10-17T14:43:08.511Z,100915.41
2022-10-17T14:45:40.988Z,100852.31
2022-10-17T14:48:24.848Z,100903.13
2022-10-17T14:51:18.336Z,100908.19
2022-10-17T14:54:23.545Z,100903.63
2022-10-17T14:56:55.927Z,100827.63
2022-10-17T15:02:17.768Z,100887.00
2022-10-17T15:04:48.656Z,100897.78
2022-10-17T15:07:20.109Z,100896.13
2022-10-17T15:09:51.322Z,100898.31
2022-10-17T15:12:24.511Z,100781.16
2022-10-17T15:14:55.468Z,100876.22
2022-10-17T15:17:28.436Z,100812.75
2022-10-17T15:19:59.968Z,100902.81
2022-10-17T15:22:32.836Z,100907.00
2022-10-17T15:25:03.492Z,100902.00
2022-10-17T15:27:34.312Z,100907.41
2022-10-17T15:30:05.965Z,100902.44
2022-10-17T15:32:36.992Z,100905.34
2022-10-17T15:35:08.262Z,100903.50
2022-10-17T15:37:40.295Z,100898.72
2022-10-17T15:40:25.835Z,100800.53
2022-10-17T15:42:57.538Z,100888.53
2022-10-17T15:45:28.105Z,100886.66
2022-10-17T15:48:06.580Z,100735.50
2022-10-17T15:50:36.987Z,100892.19
2022-10-17T15:53:12.432Z,100893.44
2022-10-17T15:55:43.115Z,100899.91
2022-10-17T15:58:18.992Z,100897.19
2022-10-17T16:00:50.242Z,100901.56
2022-10-17T16:05:52.056Z,100896.56
2022-10-17T16:08:22.466Z,100899.91
2022-10-17T16:10:54.518Z,100903.63
2022-10-17T16:13:26.161Z,100914.25
2022-10-17T16:16:15.017Z,100904.09
2022-10-17T16:19:07.150Z,100904.47
2022-10-17T16:21:41.092Z,100897.84
2022-10-17T16:24:13.199Z,100813.56
2022-10-17T16:26:44.210Z,100895.72
2022-10-17T16:29:14.778Z,100895.34
2022-10-17T16:31:47.041Z,100865.00
2022-10-17T16:34:17.967Z,100884.13
2022-10-17T16:36:48.501Z,100873.13
2022-10-17T16:39:19.255Z,100884.94
2022-10-17T16:41:50.957Z,100897.66
2022-10-17T16:44:22.325Z,100901.38
2022-10-17T16:46:52.710Z,100897.47
2022-10-17T16:49:23.012Z,100894.31
2022-10-17T16:51:53.436Z,100891.00
2022-10-17T16:54:23.805Z,100892.06
2022-10-17T16:56:54.260Z,100884.97
2022-10-17T16:59:25.311Z,100881.44
2022-10-17T17:01:56.473Z,100875.63
2022-10-17T17:04:27.434Z,100854.66
2022-10-17T17:06:58.144Z,100859.88
2022-10-17T17:09:29.039Z,100870.03
2022-10-17T17:11:59.460Z,100859.22
2022-10-17T17:14:29.910Z,100858.19
2022-10-17T17:17:00.333Z,100856.31
2022-10-17T17:19:30.747Z,100864.00
2022-10-17T17:22:01.192Z,100854.22
2022-10-17T17:24:31.480Z,100852.59
2022-10-17T17:27:01.762Z,100849.06
2022-10-17T17:29:32.184Z,100848.44
2022-10-17T17:32:02.631Z,100810.22
2022-10-17T17:34:38.211Z,100743.63
2022-10-17T17:37:08.954Z,100835.16
2022-10-17T17:39:39.381Z,100834.91
2022-10-17T17:42:10.823Z,100824.72
2022-10-17T17:44:41.311Z,100830.56
2022-10-17T17:47:11.854Z,100825.97
2022-10-17T17:49:42.667Z,100827.88
2022-10-17T17:52:13.215Z,100829.94
2022-10-17T17:54:43.560Z,100816.44
2022-10-17T17:57:13.921Z,100812.94
2022-10-17T17:59:44.262Z,100817.91
2022-10-17T18:02:15.325Z,100814.38
2022-10-17T18:04:45.729Z,100811.88
2022-10-17T18:07:16.153Z,100789.47
2022-10-17T18:09:46.470Z,100806.47
2022-10-17T18:12:16.815Z,100809.19
2022-10-17T18:14:47.260Z,100809.41
2022-10-17T18:17:17.657Z,100818.34
2022-10-17T18:19:48.342Z,100808.56
2022-10-17T18:22:18.846Z,100809.81
2022-10-17T18:24:49.192Z,100786.34
2022-10-17T18:27:19.503Z,100801.31
2022-10-17T18:29:49.890Z,100800.28
2022-10-17T18:32:20.458Z,100805.69
2022-10-17T18:34:50.807Z,100786.34
2022-10-17T18:37:21.164Z,100797.34
2022-10-17T18:39:53.723Z,100738.41
2022-10-17T18:43:40.559Z,100799.47
2022-10-17T18:46:46.885Z,100795.69
2022-10-17T18:49:29.651Z,100790.28
2022-10-17T18:52:24.383Z,100791.53
2022-10-17T18:55:18.829Z,100785.72
2022-10-17T18:59:11.294Z,100789.53
2022-10-17T19:02:06.724Z,100772.06
2022-10-17T19:13:15.907Z,100775.34
2022-10-17T19:15:51.824Z,100716.84
2022-10-17T19:18:22.145Z,100770.38
2022-10-17T19:20:54.006Z,100729.50
2022-10-17T19:23:24.443Z,100763.09
2022-10-17T19:25:57.027Z,100767.66
2022-10-17T19:28:34.371Z,100758.94
2022-10-17T19:31:15.415Z,100735.50
2022-10-17T19:33:50.666Z,100738.19
2022-10-17T19:36:23.592Z,100671.78
2022-10-17T19:38:56.235Z,100734.22
2022-10-17T19:41:27.223Z,100736.09
2022-10-17T19:43:58.611Z,100720.13
2022-10-17T19:46:30.354Z,100728.41
2022-10-17T19:49:01.168Z,100724.03
2022-10-17T19:51:33.601Z,100727.56
2022-10-17T19:54:06.089Z,100710.34
2022-10-17T19:56:41.324Z,100710.97
2022-10-17T19:59:32.979Z,100620.78
2022-10-17T20:02:25.749Z,100702.66
2022-10-17T20:05:19.204Z,100706.03
2022-10-17T20:08:29.260Z,100699.38
2022-10-17T20:11:20.167Z,100699.19
2022-10-17T20:13:58.335Z,100703.09
2022-10-17T20:16:32.387Z,100684.03
2022-10-17T20:19:10.073Z,100618.09
2022-10-17T20:21:40.999Z,100691.94
2022-10-17T20:24:14.997Z,100616.63
2022-10-17T20:26:46.055Z,100685.72
2022-10-17T20:29:20.309Z,100553.19
2022-10-17T20:31:51.196Z,100708.13
2022-10-17T20:34:22.292Z,100705.44
2022-10-17T20:37:18.749Z,100709.78
2022-10-17T20:39:55.798Z,100713.53
2022-10-17T20:42:35.654Z,100719.34
2022-10-17T20:45:07.075Z,100711.88
2022-10-17T20:47:47.003Z,100697.38
2022-10-17T20:50:18.637Z,100710.66
2022-10-17T20:52:53.329Z,100699.25
2022-10-17T20:55:27.680Z,100708.97
2022-10-17T20:57:58.263Z,100712.72
2022-10-17T21:00:29.487Z,100718.13
2022-10-17T21:03:03.417Z,100709.81
2022-10-17T21:05:44.157Z,100708.38
2022-10-17T21:08:51.559Z,100707.34
2022-10-17T21:11:33.969Z,100717.94
2022-10-17T21:14:13.648Z,100649.25
2022-10-17T21:17:18.598Z,100709.41
2022-10-17T21:20:45.963Z,100716.06
2022-10-17T21:23:52.561Z,100716.47
2022-10-17T21:26:39.598Z,100698.19
2022-10-17T21:29:14.752Z,100632.91
2022-10-17T21:31:46.742Z,100636.41
2022-10-17T21:34:19.701Z,100648.44
2022-10-17T21:36:51.041Z,100715.22
2022-10-17T21:39:22.875Z,100712.75
2022-10-17T21:41:54.086Z,100711.91
2022-10-17T21:44:27.037Z,100709.81
2022-10-17T21:46:57.512Z,100715.22
2022-10-17T21:49:28.188Z,100704.84
2022-10-17T21:51:59.343Z,100713.38
2022-10-17T21:54:29.693Z,100705.47
2022-10-17T21:57:00.236Z,100696.97
2022-10-17T21:59:32.547Z,100695.53
2022-10-17T22:02:03.414Z,100710.25
2022-10-17T22:04:33.833Z,100705.06
2022-10-17T22:07:04.167Z,100701.13
2022-10-17T22:09:34.458Z,100709.44
2022-10-17T22:12:04.794Z,100708.22
2022-10-17T22:14:35.130Z,100726.88
2022-10-17T22:17:05.505Z,100711.13
2022-10-17T22:19:35.896Z,100725.22
2022-10-17T22:22:06.210Z,100735.19
2022-10-17T22:24:36.775Z,100734.38
2022-10-17T22:27:07.293Z,100746.81
2022-10-17T22:29:37.980Z,100739.16
2022-10-17T22:32:08.362Z,100743.91
2022-10-17T22:34:38.874Z,100745.78
2022-10-17T22:37:09.285Z,100750.13
2022-10-17T22:39:39.728Z,100750.13
2022-10-17T22:42:10.172Z,100749.31
2022-10-17T22:44:40.963Z,100740.59
2022-10-17T22:47:11.353Z,100758.47
2022-10-17T22:49:41.658Z,100767.56
2022-10-17T22:52:12.224Z,100767.56
2022-10-17T22:54:42.909Z,100761.38
2022-10-17T22:57:14.495Z,100776.94
2022-10-17T22:59:45.330Z,100765.50
2022-10-17T23:02:16.097Z,100783.97
2022-10-17T23:04:46.468Z,100774.19
2022-10-17T23:07:16.789Z,100787.50
2022-10-17T23:09:47.242Z,100795.41
2022-10-17T23:12:18.623Z,100793.97
2022-10-17T23:14:49.084Z,100786.88
2022-10-17T23:17:19.476Z,100801.84
2022-10-17T23:19:52.937Z,100784.19
2022-10-17T23:22:26.393Z,100809.53
2022-10-17T23:24:56.845Z,100796.25
2022-10-17T23:27:27.300Z,100801.19
2022-10-17T23:29:57.772Z,100813.88
2022-10-17T23:32:28.529Z,100813.28
2022-10-17T23:34:59.097Z,100808.69
2022-10-17T23:37:29.760Z,100811.97
2022-10-17T23:40:00.411Z,100811.56
2022-10-17T23:42:30.793Z,100811.34
2022-10-17T23:45:01.236Z,100807.81
2022-10-17T23:47:32.159Z,100810.28
2022-10-17T23:50:02.835Z,100811.53
2022-10-17T23:52:33.363Z,100813.19
2022-10-17T23:55:03.780Z,100798.19
2022-10-17T23:57:34.440Z,100809.00
